sensor_id;sensor_type;location;lat;lon;timestamp;P1;durP1;ratioP1;P2;durP2;ratioP2
51764;SDS011;37835;53.256;6.456;2023-03-01T00:01:45;13.90;;;9.60;;
51764;SDS011;37835;53.256;6.456;2023-03-01T00:04:11;16.90;;;10.97;;
51764;SDS011;37835;53.256;6.456;2023-03-01T00:06:36;11.67;;;8.70;;
51764;SDS011;37835;53.256;6.456;2023-03-01T00:09:02;9.63;;;8.23;;
51764;SDS011;37835;53.256;6.456;2023-03-01T00:11:29;10.07;;;7.23;;
51764;SDS011;37835;53.256;6.456;2023-03-01T00:13:57;12.63;;;8.70;;
51764;SDS011;37835;53.256;6.456;2023-03-01T00:16:26;9.93;;;8.17;;
51764;SDS011;37835;53.256;6.456;2023-03-01T00:18:56;9.97;;;8.37;;
51764;SDS011;37835;53.256;6.456;2023-03-01T00:21:23;10.57;;;8.43;;
51764;SDS011;37835;53.256;6.456;2023-03-01T00:23:49;9.67;;;7.80;;
51764;SDS011;37835;53.256;6.456;2023-03-01T00:26:15;7.90;;;6.90;;
51764;SDS011;37835;53.256;6.456;2023-03-01T00:28:42;7.30;;;6.47;;
51764;SDS011;37835;53.256;6.456;2023-03-01T00:31:09;6.80;;;6.03;;
51764;SDS011;37835;53.256;6.456;2023-03-01T00:33:40;7.90;;;6.60;;
51764;SDS011;37835;53.256;6.456;2023-03-01T00:36:06;9.40;;;6.80;;
51764;SDS011;37835;53.256;6.456;2023-03-01T00:38:39;9.23;;;7.23;;
51764;SDS011;37835;53.256;6.456;2023-03-01T00:41:11;18.13;;;8.90;;
51764;SDS011;37835;53.256;6.456;2023-03-01T00:43:41;21.23;;;10.40;;
51764;SDS011;37835;53.256;6.456;2023-03-01T00:46:08;15.70;;;8.97;;
51764;SDS011;37835;53.256;6.456;2023-03-01T00:48:35;13.23;;;7.63;;
51764;SDS011;37835;53.256;6.456;2023-03-01T00:51:05;10.37;;;6.87;;
51764;SDS011;37835;53.256;6.456;2023-03-01T00:53:30;10.87;;;6.80;;
51764;SDS011;37835;53.256;6.456;2023-03-01T00:55:57;10.20;;;6.93;;
51764;SDS011;37835;53.256;6.456;2023-03-01T00:58:23;7.77;;;6.27;;
51764;SDS011;37835;53.256;6.456;2023-03-01T01:00:48;6.60;;;5.90;;
51764;SDS011;37835;53.256;6.456;2023-03-01T01:03:14;10.50;;;7.17;;
51764;SDS011;37835;53.256;6.456;2023-03-01T01:05:40;13.23;;;7.33;;
51764;SDS011;37835;53.256;6.456;2023-03-01T01:08:05;8.53;;;6.90;;
51764;SDS011;37835;53.256;6.456;2023-03-01T01:10:33;10.53;;;7.73;;
51764;SDS011;37835;53.256;6.456;2023-03-01T01:12:59;9.00;;;6.90;;
51764;SDS011;37835;53.256;6.456;2023-03-01T01:15:25;7.83;;;6.67;;
51764;SDS011;37835;53.256;6.456;2023-03-01T01:17:51;8.67;;;7.00;;
51764;SDS011;37835;53.256;6.456;2023-03-01T01:20:16;9.93;;;7.97;;
51764;SDS011;37835;53.256;6.456;2023-03-01T01:22:42;10.63;;;8.23;;
51764;SDS011;37835;53.256;6.456;2023-03-01T01:25:08;110.50;;;9.37;;
51764;SDS011;37835;53.256;6.456;2023-03-01T01:27:34;15.50;;;7.60;;
51764;SDS011;37835;53.256;6.456;2023-03-01T01:29:59;64.83;;;8.57;;
51764;SDS011;37835;53.256;6.456;2023-03-01T01:32:25;14.10;;;8.13;;
51764;SDS011;37835;53.256;6.456;2023-03-01T01:34:51;9.10;;;7.63;;
51764;SDS011;37835;53.256;6.456;2023-03-01T01:37:16;12.07;;;7.80;;
51764;SDS011;37835;53.256;6.456;2023-03-01T01:39:42;10.73;;;7.07;;
51764;SDS011;37835;53.256;6.456;2023-03-01T01:42:17;46.80;;;7.83;;
51764;SDS011;37835;53.256;6.456;2023-03-01T01:44:45;88.17;;;8.13;;
51764;SDS011;37835;53.256;6.456;2023-03-01T01:47:13;45.17;;;7.17;;
51764;SDS011;37835;53.256;6.456;2023-03-01T01:49:53;30.53;;;7.63;;
51764;SDS011;37835;53.256;6.456;2023-03-01T01:54:59;9.93;;;6.50;;
51764;SDS011;37835;53.256;6.456;2023-03-01T01:58:02;14.02;;;6.55;;
51764;SDS011;37835;53.256;6.456;2023-03-01T02:00:30;15.40;;;7.03;;
51764;SDS011;37835;53.256;6.456;2023-03-01T02:02:56;42.30;;;7.17;;
51764;SDS011;37835;53.256;6.456;2023-03-01T02:05:49;58.90;;;7.53;;
51764;SDS011;37835;53.256;6.456;2023-03-01T02:08:12;73.87;;;7.70;;
51764;SDS011;37835;53.256;6.456;2023-03-01T02:10:41;59.17;;;7.30;;
51764;SDS011;37835;53.256;6.456;2023-03-01T02:13:07;41.07;;;6.47;;
51764;SDS011;37835;53.256;6.456;2023-03-01T02:15:34;6.70;;;5.93;;
51764;SDS011;37835;53.256;6.456;2023-03-01T02:18:01;7.23;;;6.53;;
51764;SDS011;37835;53.256;6.456;2023-03-01T02:20:35;8.33;;;6.37;;
51764;SDS011;37835;53.256;6.456;2023-03-01T02:23:25;7.73;;;6.67;;
51764;SDS011;37835;53.256;6.456;2023-03-01T02:25:52;7.63;;;6.83;;
51764;SDS011;37835;53.256;6.456;2023-03-01T02:30:54;19.75;;;7.82;;
51764;SDS011;37835;53.256;6.456;2023-03-01T02:33:39;10.53;;;7.60;;
51764;SDS011;37835;53.256;6.456;2023-03-01T02:36:12;8.60;;;6.97;;
51764;SDS011;37835;53.256;6.456;2023-03-01T02:38:41;11.70;;;7.80;;
51764;SDS011;37835;53.256;6.456;2023-03-01T02:41:07;9.97;;;7.40;;
51764;SDS011;37835;53.256;6.456;2023-03-01T02:43:35;9.60;;;7.73;;
51764;SDS011;37835;53.256;6.456;2023-03-01T02:46:03;9.83;;;7.77;;
51764;SDS011;37835;53.256;6.456;2023-03-01T02:48:44;9.35;;;8.13;;
51764;SDS011;37835;53.256;6.456;2023-03-01T02:56:46;11.03;;;8.30;;
51764;SDS011;37835;53.256;6.456;2023-03-01T02:59:14;10.57;;;8.37;;
51764;SDS011;37835;53.256;6.456;2023-03-01T03:01:42;11.37;;;8.77;;
51764;SDS011;37835;53.256;6.456;2023-03-01T03:04:10;10.63;;;8.50;;
51764;SDS011;37835;53.256;6.456;2023-03-01T03:06:42;10.93;;;8.47;;
51764;SDS011;37835;53.256;6.456;2023-03-01T03:09:09;11.13;;;8.57;;
51764;SDS011;37835;53.256;6.456;2023-03-01T03:11:34;11.63;;;8.60;;
51764;SDS011;37835;53.256;6.456;2023-03-01T03:14:02;12.37;;;8.57;;
51764;SDS011;37835;53.256;6.456;2023-03-01T03:16:28;11.90;;;9.07;;
51764;SDS011;37835;53.256;6.456;2023-03-01T03:18:55;12.50;;;9.37;;
51764;SDS011;37835;53.256;6.456;2023-03-01T03:21:32;14.20;;;9.97;;
51764;SDS011;37835;53.256;6.456;2023-03-01T03:23:58;13.37;;;9.40;;
51764;SDS011;37835;53.256;6.456;2023-03-01T03:26:24;14.87;;;10.47;;
51764;SDS011;37835;53.256;6.456;2023-03-01T03:28:50;15.90;;;10.73;;
51764;SDS011;37835;53.256;6.456;2023-03-01T03:31:15;15.20;;;10.47;;
51764;SDS011;37835;53.256;6.456;2023-03-01T03:33:41;14.70;;;10.30;;
51764;SDS011;37835;53.256;6.456;2023-03-01T03:36:07;14.77;;;9.97;;
51764;SDS011;37835;53.256;6.456;2023-03-01T03:38:37;32.57;;;9.27;;
51764;SDS011;37835;53.256;6.456;2023-03-01T03:41:05;15.47;;;8.30;;
51764;SDS011;37835;53.256;6.456;2023-03-01T03:43:33;11.80;;;8.37;;
51764;SDS011;37835;53.256;6.456;2023-03-01T03:46:00;13.50;;;8.83;;
51764;SDS011;37835;53.256;6.456;2023-03-01T03:48:30;32.47;;;9.50;;
51764;SDS011;37835;53.256;6.456;2023-03-01T03:51:15;29.40;;;9.27;;
51764;SDS011;37835;53.256;6.456;2023-03-01T03:53:42;25.93;;;9.43;;
51764;SDS011;37835;53.256;6.456;2023-03-01T03:56:08;56.77;;;10.80;;
51764;SDS011;37835;53.256;6.456;2023-03-01T03:58:34;14.70;;;10.20;;
51764;SDS011;37835;53.256;6.456;2023-03-01T04:01:00;48.80;;;12.10;;
51764;SDS011;37835;53.256;6.456;2023-03-01T04:03:26;21.77;;;10.97;;
51764;SDS011;37835;53.256;6.456;2023-03-01T04:05:53;127.03;;;13.00;;
51764;SDS011;37835;53.256;6.456;2023-03-01T04:08:19;105.27;;;12.37;;
51764;SDS011;37835;53.256;6.456;2023-03-01T04:10:47;35.77;;;12.30;;
51764;SDS011;37835;53.256;6.456;2023-03-01T04:13:17;39.40;;;11.53;;
51764;SDS011;37835;53.256;6.456;2023-03-01T04:15:50;15.90;;;10.70;;
51764;SDS011;37835;53.256;6.456;2023-03-01T04:18:17;28.43;;;11.57;;
51764;SDS011;37835;53.256;6.456;2023-03-01T04:20:44;17.77;;;11.20;;
51764;SDS011;37835;53.256;6.456;2023-03-01T04:23:12;18.77;;;11.73;;
51764;SDS011;37835;53.256;6.456;2023-03-01T04:25:48;20.03;;;12.03;;
51764;SDS011;37835;53.256;6.456;2023-03-01T04:28:28;19.13;;;11.93;;
51764;SDS011;37835;53.256;6.456;2023-03-01T04:31:02;18.77;;;11.33;;
51764;SDS011;37835;53.256;6.456;2023-03-01T04:33:52;18.10;;;11.77;;
51764;SDS011;37835;53.256;6.456;2023-03-01T04:36:20;15.33;;;10.73;;
51764;SDS011;37835;53.256;6.456;2023-03-01T04:38:48;16.43;;;10.27;;
51764;SDS011;37835;53.256;6.456;2023-03-01T04:41:14;18.20;;;11.33;;
51764;SDS011;37835;53.256;6.456;2023-03-01T04:43:41;16.17;;;10.97;;
51764;SDS011;37835;53.256;6.456;2023-03-01T04:46:08;17.80;;;11.77;;
51764;SDS011;37835;53.256;6.456;2023-03-01T04:48:37;17.70;;;11.53;;
51764;SDS011;37835;53.256;6.456;2023-03-01T04:51:04;18.27;;;12.40;;
51764;SDS011;37835;53.256;6.456;2023-03-01T04:53:30;21.40;;;13.47;;
51764;SDS011;37835;53.256;6.456;2023-03-01T04:55:57;20.90;;;13.00;;
51764;SDS011;37835;53.256;6.456;2023-03-01T04:58:23;19.47;;;12.70;;
51764;SDS011;37835;53.256;6.456;2023-03-01T05:00:50;23.23;;;13.70;;
51764;SDS011;37835;53.256;6.456;2023-03-01T05:03:16;18.07;;;12.83;;
51764;SDS011;37835;53.256;6.456;2023-03-01T05:05:43;18.03;;;12.43;;
51764;SDS011;37835;53.256;6.456;2023-03-01T05:08:10;15.97;;;11.40;;
51764;SDS011;37835;53.256;6.456;2023-03-01T05:10:49;16.27;;;11.00;;
51764;SDS011;37835;53.256;6.456;2023-03-01T05:13:17;16.83;;;11.10;;
51764;SDS011;37835;53.256;6.456;2023-03-01T05:15:57;13.60;;;10.50;;
51764;SDS011;37835;53.256;6.456;2023-03-01T05:18:24;15.57;;;10.80;;
51764;SDS011;37835;53.256;6.456;2023-03-01T05:21:02;13.57;;;9.93;;
51764;SDS011;37835;53.256;6.456;2023-03-01T05:23:30;14.00;;;10.23;;
51764;SDS011;37835;53.256;6.456;2023-03-01T05:25:59;12.23;;;9.63;;
51764;SDS011;37835;53.256;6.456;2023-03-01T05:28:26;14.07;;;10.10;;
51764;SDS011;37835;53.256;6.456;2023-03-01T05:30:53;12.87;;;10.43;;
51764;SDS011;37835;53.256;6.456;2023-03-01T05:33:19;12.80;;;9.90;;
51764;SDS011;37835;53.256;6.456;2023-03-01T05:35:46;11.70;;;9.30;;
51764;SDS011;37835;53.256;6.456;2023-03-01T05:38:14;11.80;;;9.17;;
51764;SDS011;37835;53.256;6.456;2023-03-01T05:40:41;12.60;;;9.40;;
51764;SDS011;37835;53.256;6.456;2023-03-01T05:43:09;12.77;;;9.70;;
51764;SDS011;37835;53.256;6.456;2023-03-01T05:45:36;12.13;;;9.17;;
51764;SDS011;37835;53.256;6.456;2023-03-01T05:48:03;12.03;;;9.70;;
51764;SDS011;37835;53.256;6.456;2023-03-01T05:50:31;13.23;;;9.53;;
51764;SDS011;37835;53.256;6.456;2023-03-01T05:53:06;11.47;;;9.40;;
51764;SDS011;37835;53.256;6.456;2023-03-01T05:55:35;12.27;;;9.53;;
51764;SDS011;37835;53.256;6.456;2023-03-01T05:58:02;13.87;;;10.47;;
51764;SDS011;37835;53.256;6.456;2023-03-01T06:00:29;13.00;;;9.70;;
51764;SDS011;37835;53.256;6.456;2023-03-01T06:02:56;11.07;;;8.93;;
51764;SDS011;37835;53.256;6.456;2023-03-01T06:05:22;14.97;;;9.47;;
51764;SDS011;37835;53.256;6.456;2023-03-01T06:07:48;13.10;;;10.03;;
51764;SDS011;37835;53.256;6.456;2023-03-01T06:10:15;14.70;;;10.17;;
51764;SDS011;37835;53.256;6.456;2023-03-01T06:12:42;13.97;;;9.83;;
51764;SDS011;37835;53.256;6.456;2023-03-01T06:15:09;15.20;;;10.67;;
51764;SDS011;37835;53.256;6.456;2023-03-01T06:17:39;17.63;;;10.47;;
51764;SDS011;37835;53.256;6.456;2023-03-01T06:20:08;16.47;;;10.67;;
51764;SDS011;37835;53.256;6.456;2023-03-01T06:22:40;14.50;;;10.47;;
51764;SDS011;37835;53.256;6.456;2023-03-01T06:25:07;15.97;;;11.37;;
51764;SDS011;37835;53.256;6.456;2023-03-01T06:27:33;14.33;;;10.83;;
51764;SDS011;37835;53.256;6.456;2023-03-01T06:29:59;16.43;;;11.20;;
51764;SDS011;37835;53.256;6.456;2023-03-01T06:32:25;16.00;;;12.13;;
51764;SDS011;37835;53.256;6.456;2023-03-01T06:34:51;17.20;;;11.90;;
51764;SDS011;37835;53.256;6.456;2023-03-01T06:37:17;17.50;;;11.47;;
51764;SDS011;37835;53.256;6.456;2023-03-01T06:39:42;16.77;;;11.20;;
51764;SDS011;37835;53.256;6.456;2023-03-01T06:42:08;16.33;;;11.63;;
51764;SDS011;37835;53.256;6.456;2023-03-01T06:44:37;17.50;;;12.17;;
51764;SDS011;37835;53.256;6.456;2023-03-01T06:47:03;15.90;;;11.70;;
51764;SDS011;37835;53.256;6.456;2023-03-01T06:49:29;17.13;;;12.13;;
51764;SDS011;37835;53.256;6.456;2023-03-01T06:51:55;15.70;;;11.17;;
51764;SDS011;37835;53.256;6.456;2023-03-01T06:54:21;19.83;;;12.37;;
51764;SDS011;37835;53.256;6.456;2023-03-01T06:56:47;17.77;;;11.70;;
51764;SDS011;37835;53.256;6.456;2023-03-01T06:59:13;16.30;;;11.33;;
51764;SDS011;37835;53.256;6.456;2023-03-01T07:01:39;15.07;;;10.90;;
51764;SDS011;37835;53.256;6.456;2023-03-01T07:04:05;16.10;;;11.70;;
51764;SDS011;37835;53.256;6.456;2023-03-01T07:06:30;16.97;;;12.00;;
51764;SDS011;37835;53.256;6.456;2023-03-01T07:08:56;16.67;;;11.73;;
51764;SDS011;37835;53.256;6.456;2023-03-01T07:11:22;16.10;;;11.50;;
51764;SDS011;37835;53.256;6.456;2023-03-01T07:13:48;16.97;;;11.90;;
51764;SDS011;37835;53.256;6.456;2023-03-01T07:16:14;17.03;;;12.27;;
51764;SDS011;37835;53.256;6.456;2023-03-01T07:18:40;18.27;;;12.67;;
51764;SDS011;37835;53.256;6.456;2023-03-01T07:21:06;17.27;;;11.63;;
51764;SDS011;37835;53.256;6.456;2023-03-01T07:23:33;21.97;;;13.23;;
51764;SDS011;37835;53.256;6.456;2023-03-01T07:25:58;16.73;;;12.73;;
51764;SDS011;37835;53.256;6.456;2023-03-01T07:28:25;21.27;;;14.00;;
51764;SDS011;37835;53.256;6.456;2023-03-01T07:30:51;25.30;;;13.57;;
51764;SDS011;37835;53.256;6.456;2023-03-01T07:33:17;19.53;;;12.93;;
51764;SDS011;37835;53.256;6.456;2023-03-01T07:35:43;18.77;;;13.30;;
51764;SDS011;37835;53.256;6.456;2023-03-01T07:38:08;24.63;;;14.83;;
51764;SDS011;37835;53.256;6.456;2023-03-01T07:40:34;25.30;;;15.47;;
51764;SDS011;37835;53.256;6.456;2023-03-01T07:43:00;22.77;;;14.60;;
51764;SDS011;37835;53.256;6.456;2023-03-01T07:45:26;21.63;;;14.67;;
51764;SDS011;37835;53.256;6.456;2023-03-01T07:47:53;23.80;;;14.93;;
51764;SDS011;37835;53.256;6.456;2023-03-01T07:50:19;22.40;;;15.10;;
51764;SDS011;37835;53.256;6.456;2023-03-01T07:52:46;26.37;;;14.63;;
51764;SDS011;37835;53.256;6.456;2023-03-01T07:55:12;20.87;;;14.37;;
51764;SDS011;37835;53.256;6.456;2023-03-01T07:57:38;22.33;;;14.87;;
51764;SDS011;37835;53.256;6.456;2023-03-01T08:00:04;25.63;;;15.50;;
51764;SDS011;37835;53.256;6.456;2023-03-01T08:02:30;24.10;;;15.97;;
51764;SDS011;37835;53.256;6.456;2023-03-01T08:04:56;22.90;;;15.53;;
51764;SDS011;37835;53.256;6.456;2023-03-01T08:07:22;25.97;;;15.90;;
51764;SDS011;37835;53.256;6.456;2023-03-01T08:09:47;31.17;;;16.40;;
51764;SDS011;37835;53.256;6.456;2023-03-01T08:12:13;25.57;;;16.17;;
51764;SDS011;37835;53.256;6.456;2023-03-01T08:14:38;25.90;;;17.80;;
51764;SDS011;37835;53.256;6.456;2023-03-01T08:17:04;33.53;;;19.57;;
51764;SDS011;37835;53.256;6.456;2023-03-01T08:19:29;29.13;;;19.47;;
51764;SDS011;37835;53.256;6.456;2023-03-01T08:21:55;27.80;;;18.67;;
51764;SDS011;37835;53.256;6.456;2023-03-01T08:24:23;29.57;;;18.93;;
51764;SDS011;37835;53.256;6.456;2023-03-01T08:26:49;32.93;;;21.07;;
51764;SDS011;37835;53.256;6.456;2023-03-01T08:29:14;40.13;;;24.47;;
51764;SDS011;37835;53.256;6.456;2023-03-01T08:31:40;42.00;;;26.43;;
51764;SDS011;37835;53.256;6.456;2023-03-01T08:34:10;41.27;;;26.47;;
51764;SDS011;37835;53.256;6.456;2023-03-01T08:36:38;48.95;;;29.70;;
51764;SDS011;37835;53.256;6.456;2023-03-01T08:39:06;49.80;;;29.63;;
51764;SDS011;37835;53.256;6.456;2023-03-01T08:41:33;58.93;;;32.97;;
51764;SDS011;37835;53.256;6.456;2023-03-01T08:43:59;63.97;;;33.33;;
51764;SDS011;37835;53.256;6.456;2023-03-01T08:46:26;62.20;;;34.73;;
51764;SDS011;37835;53.256;6.456;2023-03-01T08:48:52;73.30;;;38.50;;
51764;SDS011;37835;53.256;6.456;2023-03-01T08:51:18;76.77;;;41.17;;
51764;SDS011;37835;53.256;6.456;2023-03-01T08:53:45;76.77;;;41.80;;
51764;SDS011;37835;53.256;6.456;2023-03-01T08:56:11;75.83;;;43.97;;
51764;SDS011;37835;53.256;6.456;2023-03-01T08:58:37;72.00;;;42.87;;
51764;SDS011;37835;53.256;6.456;2023-03-01T09:01:08;81.77;;;45.87;;
51764;SDS011;37835;53.256;6.456;2023-03-01T09:03:34;77.63;;;43.57;;
51764;SDS011;37835;53.256;6.456;2023-03-01T09:06:01;70.93;;;43.60;;
51764;SDS011;37835;53.256;6.456;2023-03-01T09:08:27;73.60;;;42.37;;
51764;SDS011;37835;53.256;6.456;2023-03-01T09:10:52;67.35;;;40.33;;
51764;SDS011;37835;53.256;6.456;2023-03-01T09:13:18;70.73;;;43.27;;
51764;SDS011;37835;53.256;6.456;2023-03-01T09:15:43;67.32;;;42.03;;
51764;SDS011;37835;53.256;6.456;2023-03-01T09:18:09;63.72;;;40.28;;
51764;SDS011;37835;53.256;6.456;2023-03-01T09:20:35;62.25;;;39.00;;
51764;SDS011;37835;53.256;6.456;2023-03-01T09:23:00;58.95;;;37.13;;
51764;SDS011;37835;53.256;6.456;2023-03-01T09:25:26;55.97;;;37.17;;
51764;SDS011;37835;53.256;6.456;2023-03-01T09:27:52;53.83;;;35.88;;
51764;SDS011;37835;53.256;6.456;2023-03-01T09:30:18;56.10;;;35.67;;
51764;SDS011;37835;53.256;6.456;2023-03-01T09:32:44;51.58;;;33.63;;
51764;SDS011;37835;53.256;6.456;2023-03-01T09:35:10;46.85;;;30.85;;
51764;SDS011;37835;53.256;6.456;2023-03-01T09:37:37;48.80;;;31.67;;
51764;SDS011;37835;53.256;6.456;2023-03-01T09:40:06;47.58;;;31.38;;
51764;SDS011;37835;53.256;6.456;2023-03-01T09:42:44;44.03;;;29.35;;
51764;SDS011;37835;53.256;6.456;2023-03-01T09:45:27;35.78;;;25.15;;
51764;SDS011;37835;53.256;6.456;2023-03-01T09:47:58;33.85;;;22.35;;
51764;SDS011;37835;53.256;6.456;2023-03-01T09:50:26;29.92;;;21.02;;
51764;SDS011;37835;53.256;6.456;2023-03-01T09:53:05;29.95;;;21.67;;
51764;SDS011;37835;53.256;6.456;2023-03-01T09:55:43;25.13;;;16.38;;
51764;SDS011;37835;53.256;6.456;2023-03-01T10:01:35;21.65;;;16.77;;
51764;SDS011;37835;53.256;6.456;2023-03-01T10:07:18;23.13;;;15.85;;
51764;SDS011;37835;53.256;6.456;2023-03-01T10:10:06;24.38;;;15.93;;
51764;SDS011;37835;53.256;6.456;2023-03-01T10:12:37;22.85;;;16.80;;
51764;SDS011;37835;53.256;6.456;2023-03-01T10:15:19;30.33;;;18.73;;
51764;SDS011;37835;53.256;6.456;2023-03-01T10:18:04;23.55;;;17.55;;
51764;SDS011;37835;53.256;6.456;2023-03-01T10:23:13;26.67;;;16.27;;
51764;SDS011;37835;53.256;6.456;2023-03-01T10:30:49;22.15;;;16.70;;
51764;SDS011;37835;53.256;6.456;2023-03-01T10:33:27;23.05;;;18.27;;
51764;SDS011;37835;53.256;6.456;2023-03-01T10:35:57;24.70;;;18.80;;
51764;SDS011;37835;53.256;6.456;2023-03-01T10:38:23;24.50;;;18.67;;
51764;SDS011;37835;53.256;6.456;2023-03-01T10:40:59;25.02;;;18.88;;
51764;SDS011;37835;53.256;6.456;2023-03-01T10:43:43;25.85;;;18.83;;
51764;SDS011;37835;53.256;6.456;2023-03-01T10:46:29;23.83;;;18.15;;
51764;SDS011;37835;53.256;6.456;2023-03-01T10:49:07;21.88;;;17.10;;
51764;SDS011;37835;53.256;6.456;2023-03-01T10:51:42;22.45;;;18.88;;
51764;SDS011;37835;53.256;6.456;2023-03-01T10:54:20;24.17;;;19.20;;
51764;SDS011;37835;53.256;6.456;2023-03-01T10:56:49;23.52;;;19.10;;
51764;SDS011;37835;53.256;6.456;2023-03-01T10:59:41;24.30;;;19.55;;
51764;SDS011;37835;53.256;6.456;2023-03-01T11:04:34;24.25;;;18.42;;
51764;SDS011;37835;53.256;6.456;2023-03-01T11:07:00;32.42;;;19.67;;
51764;SDS011;37835;53.256;6.456;2023-03-01T11:09:30;24.58;;;18.33;;
51764;SDS011;37835;53.256;6.456;2023-03-01T11:12:02;25.10;;;18.88;;
51764;SDS011;37835;53.256;6.456;2023-03-01T11:14:35;25.38;;;19.98;;
51764;SDS011;37835;53.256;6.456;2023-03-01T11:19:30;24.42;;;18.20;;
51764;SDS011;37835;53.256;6.456;2023-03-01T11:22:03;26.02;;;17.25;;
51764;SDS011;37835;53.256;6.456;2023-03-01T11:24:40;20.83;;;17.27;;
51764;SDS011;37835;53.256;6.456;2023-03-01T11:27:25;23.48;;;17.42;;
51764;SDS011;37835;53.256;6.456;2023-03-01T11:29:57;22.08;;;16.20;;
51764;SDS011;37835;53.256;6.456;2023-03-01T11:32:40;21.85;;;16.98;;
51764;SDS011;37835;53.256;6.456;2023-03-01T11:35:15;15.95;;;13.55;;
51764;SDS011;37835;53.256;6.456;2023-03-01T11:40:27;16.65;;;13.80;;
51764;SDS011;37835;53.256;6.456;2023-03-01T11:51:14;16.17;;;13.02;;
51764;SDS011;37835;53.256;6.456;2023-03-01T11:56:40;15.35;;;12.80;;
51764;SDS011;37835;53.256;6.456;2023-03-01T11:59:33;14.60;;;12.45;;
51764;SDS011;37835;53.256;6.456;2023-03-01T12:05:12;15.82;;;11.70;;
51764;SDS011;37835;53.256;6.456;2023-03-01T12:07:52;16.98;;;12.05;;
51764;SDS011;37835;53.256;6.456;2023-03-01T12:12:58;15.40;;;11.23;;
51764;SDS011;37835;53.256;6.456;2023-03-01T12:15:39;17.60;;;11.80;;
51764;SDS011;37835;53.256;6.456;2023-03-01T12:19:00;15.57;;;12.65;;
51764;SDS011;37835;53.256;6.456;2023-03-01T12:21:24;15.70;;;12.82;;
51764;SDS011;37835;53.256;6.456;2023-03-01T12:24:20;17.30;;;12.80;;
51764;SDS011;37835;53.256;6.456;2023-03-01T12:29:47;18.63;;;13.45;;
51764;SDS011;37835;53.256;6.456;2023-03-01T12:41:15;17.40;;;12.73;;
51764;SDS011;37835;53.256;6.456;2023-03-01T12:46:29;13.13;;;10.80;;
51764;SDS011;37835;53.256;6.456;2023-03-01T12:49:12;18.17;;;12.18;;
51764;SDS011;37835;53.256;6.456;2023-03-01T12:51:42;18.38;;;13.00;;
51764;SDS011;37835;53.256;6.456;2023-03-01T12:54:18;16.05;;;12.45;;
51764;SDS011;37835;53.256;6.456;2023-03-01T12:56:50;17.83;;;12.07;;
51764;SDS011;37835;53.256;6.456;2023-03-01T13:06:54;16.50;;;11.07;;
51764;SDS011;37835;53.256;6.456;2023-03-01T13:12:01;12.95;;;10.85;;
51764;SDS011;37835;53.256;6.456;2023-03-01T13:16:58;12.00;;;9.98;;
51764;SDS011;37835;53.256;6.456;2023-03-01T13:19:24;15.65;;;11.35;;
51764;SDS011;37835;53.256;6.456;2023-03-01T13:21:52;16.10;;;11.80;;
51764;SDS011;37835;53.256;6.456;2023-03-01T13:25:02;14.65;;;11.30;;
51764;SDS011;37835;53.256;6.456;2023-03-01T13:27:09;18.20;;;12.23;;
51764;SDS011;37835;53.256;6.456;2023-03-01T13:29:43;21.73;;;11.60;;
51764;SDS011;37835;53.256;6.456;2023-03-01T13:35:00;14.27;;;11.93;;
51764;SDS011;37835;53.256;6.456;2023-03-01T13:37:35;14.00;;;11.90;;
51764;SDS011;37835;53.256;6.456;2023-03-01T13:40:04;15.30;;;12.52;;
51764;SDS011;37835;53.256;6.456;2023-03-01T13:42:51;16.58;;;12.15;;
51764;SDS011;37835;53.256;6.456;2023-03-01T13:48:24;17.73;;;12.55;;
51764;SDS011;37835;53.256;6.456;2023-03-01T13:50:53;20.33;;;12.90;;
51764;SDS011;37835;53.256;6.456;2023-03-01T13:53:24;18.52;;;12.90;;
51764;SDS011;37835;53.256;6.456;2023-03-01T13:55:58;21.58;;;13.52;;
51764;SDS011;37835;53.256;6.456;2023-03-01T13:58:44;21.05;;;13.48;;
51764;SDS011;37835;53.256;6.456;2023-03-01T14:01:24;19.85;;;14.43;;
51764;SDS011;37835;53.256;6.456;2023-03-01T14:03:50;20.25;;;14.80;;
51764;SDS011;37835;53.256;6.456;2023-03-01T14:06:16;19.38;;;14.07;;
51764;SDS011;37835;53.256;6.456;2023-03-01T14:17:08;18.25;;;12.65;;
51764;SDS011;37835;53.256;6.456;2023-03-01T14:19:39;17.13;;;12.23;;
51764;SDS011;37835;53.256;6.456;2023-03-01T14:22:16;17.65;;;11.82;;
51764;SDS011;37835;53.256;6.456;2023-03-01T14:24:49;16.50;;;12.63;;
51764;SDS011;37835;53.256;6.456;2023-03-01T14:27:30;15.93;;;12.10;;
51764;SDS011;37835;53.256;6.456;2023-03-01T14:30:01;14.55;;;11.48;;
51764;SDS011;37835;53.256;6.456;2023-03-01T14:32:37;14.98;;;11.82;;
51764;SDS011;37835;53.256;6.456;2023-03-01T14:35:18;14.68;;;11.82;;
51764;SDS011;37835;53.256;6.456;2023-03-01T14:37:45;17.17;;;11.80;;
51764;SDS011;37835;53.256;6.456;2023-03-01T14:40:19;15.38;;;11.95;;
51764;SDS011;37835;53.256;6.456;2023-03-01T14:43:08;18.70;;;12.70;;
51764;SDS011;37835;53.256;6.456;2023-03-01T14:45:36;15.97;;;11.97;;
51764;SDS011;37835;53.256;6.456;2023-03-01T14:48:03;14.65;;;10.48;;
51764;SDS011;37835;53.256;6.456;2023-03-01T14:50:31;14.93;;;11.23;;
51764;SDS011;37835;53.256;6.456;2023-03-01T14:53:00;13.82;;;11.02;;
51764;SDS011;37835;53.256;6.456;2023-03-01T14:55:35;14.32;;;10.65;;
51764;SDS011;37835;53.256;6.456;2023-03-01T14:58:06;26.95;;;10.48;;
51764;SDS011;37835;53.256;6.456;2023-03-01T15:00:37;14.10;;;10.45;;
51764;SDS011;37835;53.256;6.456;2023-03-01T15:03:08;13.43;;;10.85;;
51764;SDS011;37835;53.256;6.456;2023-03-01T15:05:38;13.60;;;10.98;;
51764;SDS011;37835;53.256;6.456;2023-03-01T15:08:06;13.18;;;10.60;;
51764;SDS011;37835;53.256;6.456;2023-03-01T15:10:41;14.25;;;11.75;;
51764;SDS011;37835;53.256;6.456;2023-03-01T15:13:23;14.63;;;10.88;;
51764;SDS011;37835;53.256;6.456;2023-03-01T15:15:50;16.55;;;11.43;;
51764;SDS011;37835;53.256;6.456;2023-03-01T15:18:20;13.80;;;11.27;;
51764;SDS011;37835;53.256;6.456;2023-03-01T15:20:50;15.73;;;11.30;;
51764;SDS011;37835;53.256;6.456;2023-03-01T15:23:21;12.85;;;11.50;;
51764;SDS011;37835;53.256;6.456;2023-03-01T15:25:49;16.30;;;12.48;;
51764;SDS011;37835;53.256;6.456;2023-03-01T15:28:21;17.35;;;11.93;;
51764;SDS011;37835;53.256;6.456;2023-03-01T15:30:53;17.95;;;11.93;;
51764;SDS011;37835;53.256;6.456;2023-03-01T15:35:51;19.60;;;11.55;;
51764;SDS011;37835;53.256;6.456;2023-03-01T15:40:53;17.85;;;12.00;;
51764;SDS011;37835;53.256;6.456;2023-03-01T15:46:29;15.93;;;11.50;;
51764;SDS011;37835;53.256;6.456;2023-03-01T15:48:57;17.73;;;12.18;;
51764;SDS011;37835;53.256;6.456;2023-03-01T15:51:42;17.48;;;14.00;;
51764;SDS011;37835;53.256;6.456;2023-03-01T15:54:18;19.05;;;13.50;;
51764;SDS011;37835;53.256;6.456;2023-03-01T15:56:45;19.67;;;14.75;;
51764;SDS011;37835;53.256;6.456;2023-03-01T15:59:12;18.60;;;14.93;;
51764;SDS011;37835;53.256;6.456;2023-03-01T16:01:40;17.77;;;14.60;;
51764;SDS011;37835;53.256;6.456;2023-03-01T16:04:08;20.38;;;15.35;;
51764;SDS011;37835;53.256;6.456;2023-03-01T16:06:45;20.63;;;14.82;;
51764;SDS011;37835;53.256;6.456;2023-03-01T16:09:18;20.67;;;15.95;;
51764;SDS011;37835;53.256;6.456;2023-03-01T16:11:44;19.00;;;14.68;;
51764;SDS011;37835;53.256;6.456;2023-03-01T16:14:09;19.00;;;15.07;;
51764;SDS011;37835;53.256;6.456;2023-03-01T16:16:35;19.65;;;15.60;;
51764;SDS011;37835;53.256;6.456;2023-03-01T16:19:00;20.23;;;15.15;;
51764;SDS011;37835;53.256;6.456;2023-03-01T16:21:26;18.85;;;15.15;;